sensor_id;sensor_type;location;lat;lon;timestamp;P1;durP1;ratioP1;P2;durP2;ratioP2
30934;SDS011;51033;42.648;23.292;2022-10-19T00:01:16;2.03;;;1.67;;
30934;SDS011;51033;42.648;23.292;2022-10-19T00:03:44;2.60;;;1.55;;
30934;SDS011;51033;42.648;23.292;2022-10-19T00:06:17;3.55;;;1.60;;
30934;SDS011;51033;42.648;23.292;2022-10-19T00:08:44;2.33;;;1.80;;
30934;SDS011;51033;42.648;23.292;2022-10-19T00:11:10;3.47;;;1.98;;
30934;SDS011;51033;42.648;23.292;2022-10-19T00:13:36;1.73;;;1.25;;
30934;SDS011;51033;42.648;23.292;2022-10-19T00:16:06;4.10;;;1.48;;
30934;SDS011;51033;42.648;23.292;2022-10-19T00:18:33;2.17;;;1.33;;
30934;SDS011;51033;42.648;23.292;2022-10-19T00:21:05;1.90;;;1.55;;
30934;SDS011;51033;42.648;23.292;2022-10-19T00:23:33;3.35;;;1.88;;
30934;SDS011;51033;42.648;23.292;2022-10-19T00:25:59;14.10;;;1.88;;
30934;SDS011;51033;42.648;23.292;2022-10-19T00:28:24;3.38;;;2.20;;
30934;SDS011;51033;42.648;23.292;2022-10-19T00:30:50;2.63;;;1.77;;
30934;SDS011;51033;42.648;23.292;2022-10-19T00:33:15;2.88;;;1.90;;
30934;SDS011;51033;42.648;23.292;2022-10-19T00:35:48;2.28;;;1.60;;
30934;SDS011;51033;42.648;23.292;2022-10-19T00:38:16;3.42;;;2.47;;
30934;SDS011;51033;42.648;23.292;2022-10-19T00:40:42;2.08;;;1.77;;
30934;SDS011;51033;42.648;23.292;2022-10-19T00:43:10;2.35;;;1.90;;
30934;SDS011;51033;42.648;23.292;2022-10-19T00:45:38;3.58;;;1.83;;
30934;SDS011;51033;42.648;23.292;2022-10-19T00:48:04;3.10;;;1.80;;
30934;SDS011;51033;42.648;23.292;2022-10-19T00:50:30;4.32;;;2.00;;
30934;SDS011;51033;42.648;23.292;2022-10-19T00:52:56;2.17;;;1.45;;
30934;SDS011;51033;42.648;23.292;2022-10-19T00:55:22;2.22;;;1.88;;
30934;SDS011;51033;42.648;23.292;2022-10-19T00:57:48;2.40;;;1.80;;
30934;SDS011;51033;42.648;23.292;2022-10-19T01:00:14;5.07;;;1.80;;
30934;SDS011;51033;42.648;23.292;2022-10-19T01:02:39;3.53;;;1.70;;
30934;SDS011;51033;42.648;23.292;2022-10-19T01:05:05;3.35;;;2.00;;
30934;SDS011;51033;42.648;23.292;2022-10-19T01:07:31;3.70;;;2.03;;
30934;SDS011;51033;42.648;23.292;2022-10-19T01:09:57;3.53;;;1.98;;
30934;SDS011;51033;42.648;23.292;2022-10-19T01:12:34;5.38;;;2.15;;
30934;SDS011;51033;42.648;23.292;2022-10-19T01:18:12;5.80;;;2.10;;
30934;SDS011;51033;42.648;23.292;2022-10-19T01:32:10;7.35;;;1.90;;
30934;SDS011;51033;42.648;23.292;2022-10-19T01:34:47;3.08;;;1.95;;
30934;SDS011;51033;42.648;23.292;2022-10-19T01:42:47;3.50;;;2.20;;
30934;SDS011;51033;42.648;23.292;2022-10-19T01:45:26;4.32;;;2.50;;
30934;SDS011;51033;42.648;23.292;2022-10-19T01:48:00;3.50;;;2.40;;
30934;SDS011;51033;42.648;23.292;2022-10-19T01:50:30;2.78;;;1.95;;
30934;SDS011;51033;42.648;23.292;2022-10-19T01:53:02;3.25;;;2.60;;
30934;SDS011;51033;42.648;23.292;2022-10-19T01:55:31;2.65;;;2.20;;
30934;SDS011;51033;42.648;23.292;2022-10-19T01:58:05;3.85;;;2.22;;
30934;SDS011;51033;42.648;23.292;2022-10-19T02:00:34;3.65;;;2.17;;
30934;SDS011;51033;42.648;23.292;2022-10-19T02:03:04;3.90;;;2.00;;
30934;SDS011;51033;42.648;23.292;2022-10-19T02:05:31;3.00;;;2.15;;
30934;SDS011;51033;42.648;23.292;2022-10-19T02:08:00;3.42;;;1.80;;
30934;SDS011;51033;42.648;23.292;2022-10-19T02:10:29;4.25;;;2.55;;
30934;SDS011;51033;42.648;23.292;2022-10-19T02:12:56;6.05;;;3.17;;
30934;SDS011;51033;42.648;23.292;2022-10-19T02:15:22;2.47;;;2.20;;
30934;SDS011;51033;42.648;23.292;2022-10-19T02:17:51;3.75;;;2.10;;
30934;SDS011;51033;42.648;23.292;2022-10-19T02:20:20;7.53;;;2.65;;
30934;SDS011;51033;42.648;23.292;2022-10-19T02:22:46;5.10;;;1.90;;
30934;SDS011;51033;42.648;23.292;2022-10-19T02:25:12;4.88;;;2.33;;
30934;SDS011;51033;42.648;23.292;2022-10-19T02:27:38;3.45;;;2.40;;
30934;SDS011;51033;42.648;23.292;2022-10-19T02:30:08;9.27;;;2.58;;
30934;SDS011;51033;42.648;23.292;2022-10-19T02:32:35;4.68;;;2.72;;
30934;SDS011;51033;42.648;23.292;2022-10-19T02:35:00;4.85;;;2.53;;
30934;SDS011;51033;42.648;23.292;2022-10-19T02:37:26;5.35;;;2.17;;
30934;SDS011;51033;42.648;23.292;2022-10-19T02:39:51;5.72;;;3.33;;
30934;SDS011;51033;42.648;23.292;2022-10-19T02:42:21;7.10;;;3.00;;
30934;SDS011;51033;42.648;23.292;2022-10-19T02:44:56;4.20;;;2.88;;
30934;SDS011;51033;42.648;23.292;2022-10-19T02:47:27;3.40;;;1.58;;
30934;SDS011;51033;42.648;23.292;2022-10-19T02:49:56;4.90;;;2.10;;
30934;SDS011;51033;42.648;23.292;2022-10-19T02:52:22;3.08;;;2.10;;
30934;SDS011;51033;42.648;23.292;2022-10-19T02:54:47;3.08;;;1.58;;
30934;SDS011;51033;42.648;23.292;2022-10-19T02:57:14;3.35;;;1.80;;
30934;SDS011;51033;42.648;23.292;2022-10-19T02:59:44;5.57;;;2.30;;
30934;SDS011;51033;42.648;23.292;2022-10-19T03:02:10;2.33;;;1.67;;
30934;SDS011;51033;42.648;23.292;2022-10-19T03:04:36;2.67;;;1.85;;
30934;SDS011;51033;42.648;23.292;2022-10-19T03:07:02;4.28;;;1.80;;
30934;SDS011;51033;42.648;23.292;2022-10-19T03:09:27;3.58;;;2.00;;
30934;SDS011;51033;42.648;23.292;2022-10-19T03:11:54;2.90;;;1.70;;
30934;SDS011;51033;42.648;23.292;2022-10-19T03:14:20;4.30;;;2.70;;
30934;SDS011;51033;42.648;23.292;2022-10-19T03:16:45;3.30;;;2.15;;
30934;SDS011;51033;42.648;23.292;2022-10-19T03:19:11;3.72;;;2.03;;
30934;SDS011;51033;42.648;23.292;2022-10-19T03:21:36;4.95;;;2.97;;
30934;SDS011;51033;42.648;23.292;2022-10-19T03:24:01;8.98;;;3.92;;
30934;SDS011;51033;42.648;23.292;2022-10-19T03:26:27;4.47;;;2.88;;
30934;SDS011;51033;42.648;23.292;2022-10-19T03:28:52;6.70;;;2.35;;
30934;SDS011;51033;42.648;23.292;2022-10-19T03:31:18;7.70;;;2.10;;
30934;SDS011;51033;42.648;23.292;2022-10-19T03:33:43;5.70;;;1.92;;
30934;SDS011;51033;42.648;23.292;2022-10-19T03:38:48;6.63;;;2.00;;
30934;SDS011;51033;42.648;23.292;2022-10-19T03:41:15;5.50;;;1.98;;
30934;SDS011;51033;42.648;23.292;2022-10-19T03:43:41;3.60;;;2.55;;
30934;SDS011;51033;42.648;23.292;2022-10-19T03:46:07;3.75;;;2.05;;
30934;SDS011;51033;42.648;23.292;2022-10-19T03:48:32;2.10;;;1.88;;
30934;SDS011;51033;42.648;23.292;2022-10-19T03:51:06;2.78;;;2.50;;
30934;SDS011;51033;42.648;23.292;2022-10-19T03:55:59;2.25;;;1.70;;
30934;SDS011;51033;42.648;23.292;2022-10-19T03:58:28;5.22;;;2.33;;
30934;SDS011;51033;42.648;23.292;2022-10-19T04:00:57;3.22;;;2.08;;
30934;SDS011;51033;42.648;23.292;2022-10-19T04:03:22;5.07;;;2.30;;
30934;SDS011;51033;42.648;23.292;2022-10-19T04:05:48;5.72;;;3.10;;
30934;SDS011;51033;42.648;23.292;2022-10-19T04:08:13;3.53;;;2.25;;
30934;SDS011;51033;42.648;23.292;2022-10-19T04:10:38;4.22;;;2.42;;
30934;SDS011;51033;42.648;23.292;2022-10-19T04:13:04;2.75;;;2.20;;
30934;SDS011;51033;42.648;23.292;2022-10-19T04:15:29;4.55;;;2.38;;
30934;SDS011;51033;42.648;23.292;2022-10-19T04:17:54;7.43;;;2.58;;
30934;SDS011;51033;42.648;23.292;2022-10-19T04:20:20;8.50;;;2.53;;
30934;SDS011;51033;42.648;23.292;2022-10-19T04:22:45;3.13;;;2.38;;
30934;SDS011;51033;42.648;23.292;2022-10-19T04:25:10;3.55;;;2.35;;
30934;SDS011;51033;42.648;23.292;2022-10-19T04:27:36;4.00;;;2.05;;
30934;SDS011;51033;42.648;23.292;2022-10-19T04:30:02;3.83;;;2.42;;
30934;SDS011;51033;42.648;23.292;2022-10-19T04:32:28;6.28;;;3.25;;
30934;SDS011;51033;42.648;23.292;2022-10-19T04:34:53;10.98;;;2.47;;
30934;SDS011;51033;42.648;23.292;2022-10-19T04:37:18;3.42;;;2.08;;
30934;SDS011;51033;42.648;23.292;2022-10-19T04:39:44;4.90;;;3.05;;
30934;SDS011;51033;42.648;23.292;2022-10-19T04:42:09;7.95;;;3.17;;
30934;SDS011;51033;42.648;23.292;2022-10-19T04:44:35;8.93;;;3.40;;
30934;SDS011;51033;42.648;23.292;2022-10-19T04:47:00;5.75;;;3.25;;
30934;SDS011;51033;42.648;23.292;2022-10-19T04:49:25;9.93;;;6.47;;
30934;SDS011;51033;42.648;23.292;2022-10-19T04:51:51;18.95;;;10.82;;
30934;SDS011;51033;42.648;23.292;2022-10-19T04:54:16;17.52;;;9.55;;
30934;SDS011;51033;42.648;23.292;2022-10-19T04:56:41;19.23;;;8.95;;
30934;SDS011;51033;42.648;23.292;2022-10-19T04:59:08;9.63;;;6.80;;
30934;SDS011;51033;42.648;23.292;2022-10-19T05:01:33;14.85;;;5.63;;
30934;SDS011;51033;42.648;23.292;2022-10-19T05:04:00;11.88;;;5.53;;
30934;SDS011;51033;42.648;23.292;2022-10-19T05:06:27;9.32;;;5.32;;
30934;SDS011;51033;42.648;23.292;2022-10-19T05:08:53;9.68;;;4.97;;
30934;SDS011;51033;42.648;23.292;2022-10-19T05:11:18;12.88;;;5.18;;
30934;SDS011;51033;42.648;23.292;2022-10-19T05:13:44;16.25;;;5.68;;
30934;SDS011;51033;42.648;23.292;2022-10-19T05:16:11;11.05;;;5.75;;
30934;SDS011;51033;42.648;23.292;2022-10-19T05:18:41;14.20;;;5.07;;
30934;SDS011;51033;42.648;23.292;2022-10-19T05:21:11;10.95;;;5.07;;
30934;SDS011;51033;42.648;23.292;2022-10-19T05:23:38;15.77;;;5.32;;
30934;SDS011;51033;42.648;23.292;2022-10-19T05:26:08;8.20;;;5.05;;
30934;SDS011;51033;42.648;23.292;2022-10-19T05:28:38;8.55;;;5.05;;
30934;SDS011;51033;42.648;23.292;2022-10-19T05:31:07;11.43;;;4.88;;
30934;SDS011;51033;42.648;23.292;2022-10-19T05:33:43;9.27;;;4.78;;
30934;SDS011;51033;42.648;23.292;2022-10-19T05:38:46;21.33;;;5.18;;
30934;SDS011;51033;42.648;23.292;2022-10-19T05:41:13;13.93;;;6.38;;
30934;SDS011;51033;42.648;23.292;2022-10-19T05:43:40;12.65;;;5.65;;
30934;SDS011;51033;42.648;23.292;2022-10-19T05:46:06;10.68;;;6.65;;
30934;SDS011;51033;42.648;23.292;2022-10-19T05:48:34;11.85;;;6.65;;
30934;SDS011;51033;42.648;23.292;2022-10-19T05:51:00;11.40;;;7.38;;
30934;SDS011;51033;42.648;23.292;2022-10-19T05:53:27;9.55;;;6.43;;
30934;SDS011;51033;42.648;23.292;2022-10-19T05:55:53;10.02;;;6.40;;
30934;SDS011;51033;42.648;23.292;2022-10-19T05:58:18;10.73;;;7.18;;
30934;SDS011;51033;42.648;23.292;2022-10-19T06:00:49;15.90;;;7.32;;
30934;SDS011;51033;42.648;23.292;2022-10-19T06:03:19;17.45;;;7.78;;
30934;SDS011;51033;42.648;23.292;2022-10-19T06:05:46;13.60;;;8.43;;
30934;SDS011;51033;42.648;23.292;2022-10-19T06:08:11;19.83;;;8.48;;
30934;SDS011;51033;42.648;23.292;2022-10-19T06:10:37;14.23;;;9.27;;
30934;SDS011;51033;42.648;23.292;2022-10-19T06:13:02;17.60;;;8.65;;
30934;SDS011;51033;42.648;23.292;2022-10-19T06:15:28;23.17;;;10.13;;
30934;SDS011;51033;42.648;23.292;2022-10-19T06:17:56;16.23;;;9.15;;
30934;SDS011;51033;42.648;23.292;2022-10-19T06:20:21;16.38;;;9.70;;
30934;SDS011;51033;42.648;23.292;2022-10-19T06:22:46;22.45;;;10.25;;
30934;SDS011;51033;42.648;23.292;2022-10-19T06:25:12;22.35;;;9.02;;
30934;SDS011;51033;42.648;23.292;2022-10-19T06:27:37;22.02;;;9.68;;
30934;SDS011;51033;42.648;23.292;2022-10-19T06:30:03;16.67;;;9.25;;
30934;SDS011;51033;42.648;23.292;2022-10-19T06:32:29;17.33;;;9.88;;
30934;SDS011;51033;42.648;23.292;2022-10-19T06:34:54;18.95;;;9.00;;
30934;SDS011;51033;42.648;23.292;2022-10-19T06:37:20;19.13;;;9.35;;
30934;SDS011;51033;42.648;23.292;2022-10-19T06:39:45;15.32;;;9.43;;
30934;SDS011;51033;42.648;23.292;2022-10-19T06:42:10;17.25;;;9.75;;
30934;SDS011;51033;42.648;23.292;2022-10-19T06:44:36;18.58;;;9.23;;
30934;SDS011;51033;42.648;23.292;2022-10-19T06:47:01;24.65;;;9.98;;
30934;SDS011;51033;42.648;23.292;2022-10-19T06:49:27;20.45;;;9.27;;
30934;SDS011;51033;42.648;23.292;2022-10-19T06:51:52;18.85;;;10.32;;
30934;SDS011;51033;42.648;23.292;2022-10-19T06:54:17;22.35;;;10.88;;
30934;SDS011;51033;42.648;23.292;2022-10-19T06:56:43;21.45;;;10.88;;
30934;SDS011;51033;42.648;23.292;2022-10-19T06:59:08;19.73;;;10.73;;
30934;SDS011;51033;42.648;23.292;2022-10-19T07:01:34;20.63;;;10.75;;
30934;SDS011;51033;42.648;23.292;2022-10-19T07:04:00;18.70;;;11.10;;
30934;SDS011;51033;42.648;23.292;2022-10-19T07:06:26;22.30;;;11.10;;
30934;SDS011;51033;42.648;23.292;2022-10-19T07:08:52;29.05;;;11.52;;
30934;SDS011;51033;42.648;23.292;2022-10-19T07:11:19;20.98;;;10.88;;
30934;SDS011;51033;42.648;23.292;2022-10-19T07:13:46;20.25;;;12.23;;
30934;SDS011;51033;42.648;23.292;2022-10-19T07:16:12;23.05;;;12.80;;
30934;SDS011;51033;42.648;23.292;2022-10-19T07:18:40;21.90;;;11.57;;
30934;SDS011;51033;42.648;23.292;2022-10-19T07:21:07;22.60;;;10.25;;
30934;SDS011;51033;42.648;23.292;2022-10-19T07:23:35;16.52;;;9.90;;
30934;SDS011;51033;42.648;23.292;2022-10-19T07:26:16;19.73;;;11.00;;
30934;SDS011;51033;42.648;23.292;2022-10-19T07:28:45;17.52;;;10.15;;
30934;SDS011;51033;42.648;23.292;2022-10-19T07:31:13;27.70;;;11.65;;
30934;SDS011;51033;42.648;23.292;2022-10-19T07:33:44;17.95;;;10.95;;
30934;SDS011;51033;42.648;23.292;2022-10-19T07:36:10;18.08;;;11.40;;
30934;SDS011;51033;42.648;23.292;2022-10-19T07:38:37;16.80;;;10.55;;
30934;SDS011;51033;42.648;23.292;2022-10-19T07:43:29;20.15;;;11.57;;
30934;SDS011;51033;42.648;23.292;2022-10-19T07:45:58;20.83;;;13.00;;
30934;SDS011;51033;42.648;23.292;2022-10-19T07:48:25;21.48;;;11.68;;
30934;SDS011;51033;42.648;23.292;2022-10-19T07:50:50;20.90;;;13.10;;
30934;SDS011;51033;42.648;23.292;2022-10-19T07:53:16;21.17;;;12.55;;
30934;SDS011;51033;42.648;23.292;2022-10-19T07:55:41;22.73;;;12.77;;
30934;SDS011;51033;42.648;23.292;2022-10-19T07:58:07;25.35;;;14.13;;
30934;SDS011;51033;42.648;23.292;2022-10-19T08:00:32;26.08;;;13.48;;
30934;SDS011;51033;42.648;23.292;2022-10-19T08:02:57;20.45;;;12.40;;
30934;SDS011;51033;42.648;23.292;2022-10-19T08:05:23;18.92;;;11.63;;
30934;SDS011;51033;42.648;23.292;2022-10-19T08:07:48;25.38;;;13.35;;
30934;SDS011;51033;42.648;23.292;2022-10-19T08:10:14;25.05;;;14.98;;
30934;SDS011;51033;42.648;23.292;2022-10-19T08:12:39;19.88;;;13.82;;
30934;SDS011;51033;42.648;23.292;2022-10-19T08:15:04;25.85;;;15.35;;
30934;SDS011;51033;42.648;23.292;2022-10-19T08:17:33;30.70;;;16.02;;
30934;SDS011;51033;42.648;23.292;2022-10-19T08:19:59;29.98;;;14.82;;
30934;SDS011;51033;42.648;23.292;2022-10-19T08:22:25;24.73;;;15.70;;
30934;SDS011;51033;42.648;23.292;2022-10-19T08:24:50;23.98;;;15.18;;
30934;SDS011;51033;42.648;23.292;2022-10-19T08:27:15;45.45;;;16.60;;
30934;SDS011;51033;42.648;23.292;2022-10-19T08:29:41;26.42;;;16.63;;
30934;SDS011;51033;42.648;23.292;2022-10-19T08:32:07;19.60;;;13.13;;
30934;SDS011;51033;42.648;23.292;2022-10-19T08:34:32;19.88;;;12.75;;
30934;SDS011;51033;42.648;23.292;2022-10-19T08:36:57;18.90;;;11.98;;
30934;SDS011;51033;42.648;23.292;2022-10-19T08:39:25;19.85;;;8.40;;
30934;SDS011;51033;42.648;23.292;2022-10-19T08:50:28;12.70;;;7.10;;
30934;SDS011;51033;42.648;23.292;2022-10-19T08:53:04;17.02;;;6.65;;
30934;SDS011;51033;42.648;23.292;2022-10-19T08:56:17;10.18;;;5.88;;
30934;SDS011;51033;42.648;23.292;2022-10-19T09:01:18;10.45;;;5.32;;
30934;SDS011;51033;42.648;23.292;2022-10-19T09:03:59;7.60;;;5.13;;
30934;SDS011;51033;42.648;23.292;2022-10-19T09:06:43;8.00;;;4.13;;
30934;SDS011;51033;42.648;23.292;2022-10-19T09:09:16;9.07;;;4.93;;
30934;SDS011;51033;42.648;23.292;2022-10-19T09:11:45;7.82;;;4.13;;
30934;SDS011;51033;42.648;23.292;2022-10-19T09:14:24;4.07;;;3.60;;
30934;SDS011;51033;42.648;23.292;2022-10-19T09:16:55;5.55;;;4.10;;
30934;SDS011;51033;42.648;23.292;2022-10-19T09:19:25;13.13;;;4.13;;
30934;SDS011;51033;42.648;23.292;2022-10-19T09:27:17;9.57;;;3.63;;
30934;SDS011;51033;42.648;23.292;2022-10-19T09:30:00;8.00;;;3.13;;
30934;SDS011;51033;42.648;23.292;2022-10-19T09:35:00;6.55;;;3.13;;
30934;SDS011;51033;42.648;23.292;2022-10-19T09:37:28;4.22;;;2.80;;
30934;SDS011;51033;42.648;23.292;2022-10-19T09:39:55;4.05;;;2.72;;
30934;SDS011;51033;42.648;23.292;2022-10-19T09:42:28;5.80;;;2.90;;
30934;SDS011;51033;42.648;23.292;2022-10-19T09:44:57;7.18;;;3.47;;
30934;SDS011;51033;42.648;23.292;2022-10-19T09:47:32;5.40;;;2.97;;
30934;SDS011;51033;42.648;23.292;2022-10-19T09:52:45;4.47;;;2.55;;
30934;SDS011;51033;42.648;23.292;2022-10-19T09:57:41;5.90;;;3.47;;
30934;SDS011;51033;42.648;23.292;2022-10-19T10:00:15;4.57;;;3.03;;
30934;SDS011;51033;42.648;23.292;2022-10-19T10:02:49;6.63;;;3.40;;
30934;SDS011;51033;42.648;23.292;2022-10-19T10:05:17;3.60;;;2.50;;
30934;SDS011;51033;42.648;23.292;2022-10-19T10:07:44;6.82;;;2.20;;
30934;SDS011;51033;42.648;23.292;2022-10-19T10:10:22;5.25;;;2.58;;
30934;SDS011;51033;42.648;23.292;2022-10-19T10:12:52;3.95;;;2.70;;
30934;SDS011;51033;42.648;23.292;2022-10-19T10:15:20;4.05;;;2.60;;
30934;SDS011;51033;42.648;23.292;2022-10-19T10:17:48;2.63;;;1.90;;
30934;SDS011;51033;42.648;23.292;2022-10-19T10:23:02;4.57;;;2.72;;
30934;SDS011;51033;42.648;23.292;2022-10-19T10:25:31;7.63;;;3.00;;
30934;SDS011;51033;42.648;23.292;2022-10-19T10:28:00;3.03;;;2.10;;
30934;SDS011;51033;42.648;23.292;2022-10-19T10:30:42;3.47;;;2.15;;
30934;SDS011;51033;42.648;23.292;2022-10-19T10:33:16;3.92;;;2.63;;
30934;SDS011;51033;42.648;23.292;2022-10-19T10:35:50;3.75;;;2.22;;
30934;SDS011;51033;42.648;23.292;2022-10-19T10:38:24;3.88;;;2.00;;
30934;SDS011;51033;42.648;23.292;2022-10-19T10:40:56;3.33;;;2.10;;
30934;SDS011;51033;42.648;23.292;2022-10-19T10:43:31;2.05;;;1.85;;
30934;SDS011;51033;42.648;23.292;2022-10-19T10:45:59;3.70;;;1.83;;
30934;SDS011;51033;42.648;23.292;2022-10-19T10:48:36;3.35;;;2.13;;
30934;SDS011;51033;42.648;23.292;2022-10-19T10:51:16;3.55;;;2.08;;
30934;SDS011;51033;42.648;23.292;2022-10-19T10:53:44;3.53;;;2.20;;
30934;SDS011;51033;42.648;23.292;2022-10-19T10:56:24;4.15;;;2.35;;
30934;SDS011;51033;42.648;23.292;2022-10-19T10:58:56;3.75;;;1.88;;
30934;SDS011;51033;42.648;23.292;2022-10-19T11:01:28;3.50;;;2.40;;
30934;SDS011;51033;42.648;23.292;2022-10-19T11:04:00;3.70;;;1.65;;
30934;SDS011;51033;42.648;23.292;2022-10-19T11:06:30;3.08;;;1.83;;
30934;SDS011;51033;42.648;23.292;2022-10-19T11:09:03;3.70;;;1.63;;
30934;SDS011;51033;42.648;23.292;2022-10-19T11:11:50;3.00;;;1.95;;
30934;SDS011;51033;42.648;23.292;2022-10-19T11:14:29;3.75;;;1.98;;
30934;SDS011;51033;42.648;23.292;2022-10-19T11:17:02;3.30;;;2.08;;
30934;SDS011;51033;42.648;23.292;2022-10-19T11:19:35;2.53;;;1.75;;
30934;SDS011;51033;42.648;23.292;2022-10-19T11:25:24;4.18;;;2.35;;
30934;SDS011;51033;42.648;23.292;2022-10-19T11:31:33;4.68;;;1.85;;
30934;SDS011;51033;42.648;23.292;2022-10-19T11:36:55;3.00;;;2.10;;
30934;SDS011;51033;42.648;23.292;2022-10-19T12:10:20;2.80;;;1.80;;
30934;SDS011;51033;42.648;23.292;2022-10-19T12:12:47;1.70;;;1.23;;
30934;SDS011;51033;42.648;23.292;2022-10-19T12:17:45;2.20;;;1.45;;
30934;SDS011;51033;42.648;23.292;2022-10-19T12:20:48;4.05;;;1.60;;
30934;SDS011;51033;42.648;23.292;2022-10-19T12:23:16;3.92;;;2.05;;
30934;SDS011;51033;42.648;23.292;2022-10-19T12:25:47;3.70;;;1.92;;
30934;SDS011;51033;42.648;23.292;2022-10-19T12:28:19;3.22;;;1.73;;
30934;SDS011;51033;42.648;23.292;2022-10-19T12:33:20;4.28;;;1.85;;
30934;SDS011;51033;42.648;23.292;2022-10-19T12:36:00;5.07;;;1.95;;
30934;SDS011;51033;42.648;23.292;2022-10-19T12:41:35;4.05;;;2.03;;
30934;SDS011;51033;42.648;23.292;2022-10-19T12:47:14;4.32;;;1.92;;
30934;SDS011;51033;42.648;23.292;2022-10-19T12:49:49;4.60;;;2.42;;
30934;SDS011;51033;42.648;23.292;2022-10-19T12:55:11;3.38;;;2.28;;
30934;SDS011;51033;42.648;23.292;2022-10-19T12:57:37;6.43;;;2.30;;
30934;SDS011;51033;42.648;23.292;2022-10-19T13:00:26;3.30;;;2.10;;
30934;SDS011;51033;42.648;23.292;2022-10-19T13:03:33;3.03;;;1.83;;
30934;SDS011;51033;42.648;23.292;2022-10-19T13:05:57;5.22;;;2.30;;
30934;SDS011;51033;42.648;23.292;2022-10-19T13:08:26;2.63;;;2.20;;
30934;SDS011;51033;42.648;23.292;2022-10-19T13:11:06;6.30;;;2.00;;
30934;SDS011;51033;42.648;23.292;2022-10-19T13:19:00;4.80;;;2.65;;
30934;SDS011;51033;42.648;23.292;2022-10-19T13:26:43;3.53;;;2.40;;
30934;SDS011;51033;42.648;23.292;2022-10-19T13:29:23;3.30;;;2.25;;
30934;SDS011;51033;42.648;23.292;2022-10-19T13:31:49;4.05;;;1.92;;
30934;SDS011;51033;42.648;23.292;2022-10-19T13:34:15;6.45;;;2.25;;
30934;SDS011;51033;42.648;23.292;2022-10-19T13:36:57;4.78;;;2.38;;
30934;SDS011;51033;42.648;23.292;2022-10-19T13:39:27;4.13;;;2.10;;
30934;SDS011;51033;42.648;23.292;2022-10-19T13:41:53;3.75;;;2.38;;
30934;SDS011;51033;42.648;23.292;2022-10-19T13:46:52;4.90;;;2.42;;
30934;SDS011;51033;42.648;23.292;2022-10-19T13:53:00;4.13;;;2.88;;
30934;SDS011;51033;42.648;23.292;2022-10-19T14:00:59;5.13;;;2.83;;
30934;SDS011;51033;42.648;23.292;2022-10-19T14:12:05;8.25;;;2.70;;
30934;SDS011;51033;42.648;23.292;2022-10-19T14:14:52;5.95;;;2.40;;
30934;SDS011;51033;42.648;23.292;2022-10-19T14:17:21;4.15;;;2.28;;
30934;SDS011;51033;42.648;23.292;2022-10-19T14:19:50;3.65;;;2.25;;
30934;SDS011;51033;42.648;23.292;2022-10-19T14:22:28;4.07;;;2.75;;
30934;SDS011;51033;42.648;23.292;2022-10-19T14:25:03;5.05;;;2.63;;
30934;SDS011;51033;42.648;23.292;2022-10-19T14:27:31;2.72;;;2.38;;
30934;SDS011;51033;42.648;23.292;2022-10-19T14:29:57;8.15;;;3.08;;
30934;SDS011;51033;42.648;23.292;2022-10-19T14:32:24;4.10;;;3.28;;
30934;SDS011;51033;42.648;23.292;2022-10-19T14:34:52;7.50;;;4.50;;
30934;SDS011;51033;42.648;23.292;2022-10-19T14:37:20;10.25;;;5.47;;
30934;SDS011;51033;42.648;23.292;2022-10-19T14:42:22;11.38;;;4.57;;
30934;SDS011;51033;42.648;23.292;2022-10-19T14:44:48;6.65;;;4.03;;
30934;SDS011;51033;42.648;23.292;2022-10-19T14:47:23;5.05;;;3.28;;
30934;SDS011;51033;42.648;23.292;2022-10-19T14:49:52;5.35;;;3.13;;
30934;SDS011;51033;42.648;23.292;2022-10-19T14:52:22;5.75;;;3.63;;
30934;SDS011;51033;42.648;23.292;2022-10-19T14:55:07;6.60;;;4.00;;
30934;SDS011;51033;42.648;23.292;2022-10-19T14:57:40;9.85;;;4.90;;
30934;SDS011;51033;42.648;23.292;2022-10-19T15:00:16;4.65;;;3.65;;
30934;SDS011;51033;42.648;23.292;2022-10-19T15:02:45;6.57;;;3.88;;
30934;SDS011;51033;42.648;23.292;2022-10-19T15:05:18;9.30;;;5.57;;
30934;SDS011;51033;42.648;23.292;2022-10-19T15:07:46;8.38;;;5.68;;
30934;SDS011;51033;42.648;23.292;2022-10-19T15:10:19;8.65;;;4.95;;
30934;SDS011;51033;42.648;23.292;2022-10-19T15:12:45;9.25;;;6.03;;
30934;SDS011;51033;42.648;23.292;2022-10-19T15:15:18;6.30;;;4.38;;
30934;SDS011;51033;42.648;23.292;2022-10-19T15:17:55;7.78;;;4.95;;
30934;SDS011;51033;42.648;23.292;2022-10-19T15:20:34;8.48;;;5.20;;
30934;SDS011;51033;42.648;23.292;2022-10-19T15:23:02;10.18;;;5.72;;
30934;SDS011;51033;42.648;23.292;2022-10-19T15:28:50;6.82;;;4.50;;
30934;SDS011;51033;42.648;23.292;2022-10-19T15:31:19;9.68;;;5.30;;
30934;SDS011;51033;42.648;23.292;2022-10-19T15:33:53;7.88;;;4.25;;
30934;SDS011;51033;42.648;23.292;2022-10-19T15:36:20;8.65;;;4.10;;
30934;SDS011;51033;42.648;23.292;2022-10-19T15:38:48;7.18;;;4.15;;
30934;SDS011;51033;42.648;23.292;2022-10-19T15:41:35;11.93;;;4.82;;
30934;SDS011;51033;42.648;23.292;2022-10-19T15:44:02;9.68;;;4.47;;
30934;SDS011;51033;42.648;23.292;2022-10-19T15:52:01;7.60;;;4.72;;
30934;SDS011;51033;42.648;23.292;2022-10-19T15:54:39;8.65;;;5.18;;
30934;SDS011;51033;42.648;23.292;2022-10-19T15:57:18;7.20;;;4.85;;
30934;SDS011;51033;42.648;23.292;2022-10-19T15:59:48;6.68;;;5.05;;
30934;SDS011;51033;42.648;23.292;2022-10-19T16:02:13;7.80;;;5.25;;
30934;SDS011;51033;42.648;23.292;2022-10-19T16:04:39;8.23;;;5.60;;
30934;SDS011;51033;42.648;23.292;2022-10-19T16:07:04;8.40;;;5.90;;
30934;SDS011;51033;42.648;23.292;2022-10-19T16:09:31;11.35;;;7.93;;
30934;SDS011;51033;42.648;23.292;2022-10-19T16:11:56;10.95;;;6.75;;
30934;SDS011;51033;42.648;23.292;2022-10-19T16:14:22;8.48;;;6.70;;
30934;SDS011;51033;42.648;23.292;2022-10-19T16:16:48;10.00;;;6.68;;
30934;SDS011;51033;42.648;23.292;2022-10-19T16:19:14;11.93;;;7.53;;
30934;SDS011;51033;42.648;23.292;2022-10-19T16:21:39;8.80;;;6.35;;
30934;SDS011;51033;42.648;23.292;2022-10-19T16:24:05;11.32;;;7.68;;
30934;SDS011;51033;42.648;23.292;2022-10-19T16:26:30;10.95;;;7.00;;
30934;SDS011;51033;42.648;23.292;2022-10-19T16:28:56;11.77;;;9.15;;
30934;SDS011;51033;42.648;23.292;2022-10-19T16:31:22;9.80;;;6.97;;
30934;SDS011;51033;42.648;23.292;2022-10-19T16:33:48;8.15;;;5.90;;
30934;SDS011;51033;42.648;23.292;2022-10-19T16:36:14;13.07;;;7.93;;
30934;SDS011;51033;42.648;23.292;2022-10-19T16:38:39;13.60;;;8.68;;
30934;SDS011;51033;42.648;23.292;2022-10-19T16:41:05;13.48;;;8.35;;
30934;SDS011;51033;42.648;23.292;2022-10-19T16:43:33;13.27;;;8.73;;
30934;SDS011;51033;42.648;23.292;2022-10-19T16:45:59;21.67;;;12.93;;
30934;SDS011;51033;42.648;23.292;2022-10-19T16:48:25;17.17;;;9.40;;
30934;SDS011;51033;42.648;23.292;2022-10-19T16:51:09;15.13;;;9.23;;
30934;SDS011;51033;42.648;23.292;2022-10-19T16:53:45;8.98;;;7.38;;
30934;SDS011;51033;42.648;23.292;2022-10-19T16:56:15;11.65;;;8.73;;
30934;SDS011;51033;42.648;23.292;2022-10-19T16:58:40;10.55;;;7.78;;
30934;SDS011;51033;42.648;23.292;2022-10-19T17:01:09;10.27;;;7.80;;
30934;SDS011;51033;42.648;23.292;2022-10-19T17:03:40;8.82;;;7.47;;
30934;SDS011;51033;42.648;23.292;2022-10-19T17:06:06;11.68;;;8.52;;
30934;SDS011;51033;42.648;23.292;2022-10-19T17:08:33;13.93;;;8.45;;
30934;SDS011;51033;42.648;23.292;2022-10-19T17:11:10;11.25;;;7.90;;
30934;SDS011;51033;42.648;23.292;2022-10-19T17:13:38;11.88;;;7.43;;